sensor_id;sensor_type;location;lat;lon;timestamp;P1;durP1;ratioP1;P2;durP2;ratioP2
31596;SDS011;18201;50.978;7.034;2023-01-09T00:00:28;7.68;;;4.60;;
31596;SDS011;18201;50.978;7.034;2023-01-09T00:01:00;4.57;;;3.35;;
31596;SDS011;18201;50.978;7.034;2023-01-09T00:01:33;2.55;;;2.30;;
31596;SDS011;18201;50.978;7.034;2023-01-09T00:02:05;3.72;;;2.28;;
31596;SDS011;18201;50.978;7.034;2023-01-09T00:02:37;4.75;;;2.33;;
31596;SDS011;18201;50.978;7.034;2023-01-09T00:03:09;2.95;;;2.70;;
31596;SDS011;18201;50.978;7.034;2023-01-09T00:03:40;5.40;;;3.20;;
31596;SDS011;18201;50.978;7.034;2023-01-09T00:04:12;4.05;;;2.83;;
31596;SDS011;18201;50.978;7.034;2023-01-09T00:04:43;6.72;;;3.65;;
31596;SDS011;18201;50.978;7.034;2023-01-09T00:05:15;3.97;;;3.58;;
31596;SDS011;18201;50.978;7.034;2023-01-09T00:05:48;4.82;;;3.17;;
31596;SDS011;18201;50.978;7.034;2023-01-09T00:06:20;5.35;;;4.00;;
31596;SDS011;18201;50.978;7.034;2023-01-09T00:06:52;3.60;;;3.30;;
31596;SDS011;18201;50.978;7.034;2023-01-09T00:07:23;4.70;;;3.55;;
31596;SDS011;18201;50.978;7.034;2023-01-09T00:07:54;4.30;;;3.40;;
31596;SDS011;18201;50.978;7.034;2023-01-09T00:08:26;3.58;;;2.88;;
31596;SDS011;18201;50.978;7.034;2023-01-09T00:08:59;4.03;;;2.38;;
31596;SDS011;18201;50.978;7.034;2023-01-09T00:09:31;4.30;;;3.08;;
31596;SDS011;18201;50.978;7.034;2023-01-09T00:10:03;4.35;;;2.80;;
31596;SDS011;18201;50.978;7.034;2023-01-09T00:10:34;2.58;;;2.35;;
31596;SDS011;18201;50.978;7.034;2023-01-09T00:11:08;3.15;;;2.10;;
31596;SDS011;18201;50.978;7.034;2023-01-09T00:11:40;2.45;;;2.10;;
31596;SDS011;18201;50.978;7.034;2023-01-09T00:12:11;2.83;;;2.28;;
31596;SDS011;18201;50.978;7.034;2023-01-09T00:12:44;2.40;;;1.65;;
31596;SDS011;18201;50.978;7.034;2023-01-09T00:13:15;2.50;;;2.30;;
31596;SDS011;18201;50.978;7.034;2023-01-09T00:13:47;3.20;;;2.53;;
31596;SDS011;18201;50.978;7.034;2023-01-09T00:14:19;2.72;;;1.30;;
31596;SDS011;18201;50.978;7.034;2023-01-09T00:14:51;1.80;;;1.17;;
31596;SDS011;18201;50.978;7.034;2023-01-09T00:15:22;1.80;;;1.58;;
31596;SDS011;18201;50.978;7.034;2023-01-09T00:15:54;2.55;;;1.80;;
31596;SDS011;18201;50.978;7.034;2023-01-09T00:16:25;2.03;;;1.40;;
31596;SDS011;18201;50.978;7.034;2023-01-09T00:16:56;2.10;;;1.70;;
31596;SDS011;18201;50.978;7.034;2023-01-09T00:17:28;1.80;;;1.60;;
31596;SDS011;18201;50.978;7.034;2023-01-09T00:17:59;1.33;;;0.80;;
31596;SDS011;18201;50.978;7.034;2023-01-09T00:18:30;0.95;;;0.90;;
31596;SDS011;18201;50.978;7.034;2023-01-09T00:19:01;3.10;;;1.85;;
31596;SDS011;18201;50.978;7.034;2023-01-09T00:19:32;4.88;;;2.15;;
31596;SDS011;18201;50.978;7.034;2023-01-09T00:20:04;4.63;;;2.45;;
31596;SDS011;18201;50.978;7.034;2023-01-09T00:20:37;3.80;;;2.25;;
31596;SDS011;18201;50.978;7.034;2023-01-09T00:21:09;5.80;;;1.90;;
31596;SDS011;18201;50.978;7.034;2023-01-09T00:21:42;2.58;;;1.67;;
31596;SDS011;18201;50.978;7.034;2023-01-09T00:22:14;3.08;;;1.60;;
31596;SDS011;18201;50.978;7.034;2023-01-09T00:22:49;3.88;;;2.35;;
31596;SDS011;18201;50.978;7.034;2023-01-09T00:23:20;3.05;;;1.40;;
31596;SDS011;18201;50.978;7.034;2023-01-09T00:23:52;3.00;;;1.80;;
31596;SDS011;18201;50.978;7.034;2023-01-09T00:24:23;3.80;;;1.20;;
31596;SDS011;18201;50.978;7.034;2023-01-09T00:24:55;3.30;;;1.65;;
31596;SDS011;18201;50.978;7.034;2023-01-09T00:25:26;5.75;;;2.70;;
31596;SDS011;18201;50.978;7.034;2023-01-09T00:26:00;4.57;;;2.50;;
31596;SDS011;18201;50.978;7.034;2023-01-09T00:26:33;4.65;;;2.05;;
31596;SDS011;18201;50.978;7.034;2023-01-09T00:27:04;1.60;;;1.50;;
31596;SDS011;18201;50.978;7.034;2023-01-09T00:27:36;3.75;;;1.85;;
31596;SDS011;18201;50.978;7.034;2023-01-09T00:28:08;4.22;;;2.00;;
31596;SDS011;18201;50.978;7.034;2023-01-09T00:28:39;2.22;;;1.80;;
31596;SDS011;18201;50.978;7.034;2023-01-09T00:29:10;3.88;;;1.67;;
31596;SDS011;18201;50.978;7.034;2023-01-09T00:29:41;5.60;;;2.53;;
31596;SDS011;18201;50.978;7.034;2023-01-09T00:30:14;3.10;;;2.20;;
31596;SDS011;18201;50.978;7.034;2023-01-09T00:30:48;1.30;;;1.15;;
31596;SDS011;18201;50.978;7.034;2023-01-09T00:31:26;1.50;;;1.33;;
31596;SDS011;18201;50.978;7.034;2023-01-09T00:31:57;4.20;;;1.80;;
31596;SDS011;18201;50.978;7.034;2023-01-09T00:32:29;2.78;;;2.22;;
31596;SDS011;18201;50.978;7.034;2023-01-09T00:33:01;1.73;;;1.63;;
31596;SDS011;18201;50.978;7.034;2023-01-09T00:33:33;2.30;;;1.50;;
31596;SDS011;18201;50.978;7.034;2023-01-09T00:34:06;3.13;;;1.40;;
31596;SDS011;18201;50.978;7.034;2023-01-09T00:34:39;2.30;;;1.63;;
31596;SDS011;18201;50.978;7.034;2023-01-09T00:35:14;1.30;;;0.68;;
31596;SDS011;18201;50.978;7.034;2023-01-09T00:35:47;3.35;;;0.90;;
31596;SDS011;18201;50.978;7.034;2023-01-09T00:36:18;0.80;;;0.80;;
31596;SDS011;18201;50.978;7.034;2023-01-09T00:36:50;2.78;;;1.30;;
31596;SDS011;18201;50.978;7.034;2023-01-09T00:37:24;3.53;;;1.70;;
31596;SDS011;18201;50.978;7.034;2023-01-09T00:37:55;3.78;;;2.03;;
31596;SDS011;18201;50.978;7.034;2023-01-09T00:38:25;4.32;;;2.38;;
31596;SDS011;18201;50.978;7.034;2023-01-09T00:38:57;6.72;;;2.67;;
31596;SDS011;18201;50.978;7.034;2023-01-09T00:39:28;4.75;;;1.65;;
31596;SDS011;18201;50.978;7.034;2023-01-09T00:39:59;3.05;;;1.50;;
31596;SDS011;18201;50.978;7.034;2023-01-09T00:40:31;2.13;;;1.20;;
31596;SDS011;18201;50.978;7.034;2023-01-09T00:41:02;2.25;;;1.33;;
31596;SDS011;18201;50.978;7.034;2023-01-09T00:41:36;2.60;;;1.20;;
31596;SDS011;18201;50.978;7.034;2023-01-09T00:42:11;1.90;;;1.08;;
31596;SDS011;18201;50.978;7.034;2023-01-09T00:42:46;1.98;;;1.33;;
31596;SDS011;18201;50.978;7.034;2023-01-09T00:43:21;3.92;;;1.67;;
31596;SDS011;18201;50.978;7.034;2023-01-09T00:43:56;5.15;;;1.17;;
31596;SDS011;18201;50.978;7.034;2023-01-09T00:44:30;4.05;;;1.80;;
31596;SDS011;18201;50.978;7.034;2023-01-09T00:45:07;4.80;;;2.30;;
31596;SDS011;18201;50.978;7.034;2023-01-09T00:45:40;4.72;;;2.70;;
31596;SDS011;18201;50.978;7.034;2023-01-09T00:46:11;4.70;;;2.53;;
31596;SDS011;18201;50.978;7.034;2023-01-09T00:46:46;5.80;;;2.58;;
31596;SDS011;18201;50.978;7.034;2023-01-09T00:47:21;3.40;;;2.10;;
31596;SDS011;18201;50.978;7.034;2023-01-09T00:47:57;4.60;;;2.92;;
31596;SDS011;18201;50.978;7.034;2023-01-09T00:48:32;4.32;;;1.77;;
31596;SDS011;18201;50.978;7.034;2023-01-09T00:49:04;4.80;;;1.65;;
31596;SDS011;18201;50.978;7.034;2023-01-09T00:49:37;4.82;;;1.70;;
31596;SDS011;18201;50.978;7.034;2023-01-09T00:50:11;3.22;;;1.88;;
31596;SDS011;18201;50.978;7.034;2023-01-09T00:50:43;4.80;;;2.17;;
31596;SDS011;18201;50.978;7.034;2023-01-09T00:51:14;4.63;;;2.13;;
31596;SDS011;18201;50.978;7.034;2023-01-09T00:51:49;3.33;;;1.73;;
31596;SDS011;18201;50.978;7.034;2023-01-09T00:52:22;3.33;;;2.33;;
31596;SDS011;18201;50.978;7.034;2023-01-09T00:52:53;5.53;;;2.83;;
31596;SDS011;18201;50.978;7.034;2023-01-09T00:53:30;8.63;;;3.72;;
31596;SDS011;18201;50.978;7.034;2023-01-09T00:54:02;9.02;;;3.92;;
31596;SDS011;18201;50.978;7.034;2023-01-09T00:54:33;15.45;;;6.35;;
31596;SDS011;18201;50.978;7.034;2023-01-09T00:55:06;14.60;;;5.97;;
31596;SDS011;18201;50.978;7.034;2023-01-09T00:55:38;14.55;;;6.30;;
31596;SDS011;18201;50.978;7.034;2023-01-09T00:56:10;13.52;;;6.43;;
31596;SDS011;18201;50.978;7.034;2023-01-09T00:56:45;20.55;;;8.68;;
31596;SDS011;18201;50.978;7.034;2023-01-09T00:57:17;21.35;;;9.38;;
31596;SDS011;18201;50.978;7.034;2023-01-09T00:57:48;18.02;;;7.82;;
31596;SDS011;18201;50.978;7.034;2023-01-09T00:58:20;11.98;;;5.63;;
31596;SDS011;18201;50.978;7.034;2023-01-09T00:58:51;16.23;;;6.93;;
31596;SDS011;18201;50.978;7.034;2023-01-09T00:59:22;15.00;;;6.78;;
31596;SDS011;18201;50.978;7.034;2023-01-09T00:59:54;10.63;;;5.65;;
31596;SDS011;18201;50.978;7.034;2023-01-09T01:00:26;11.40;;;4.90;;
31596;SDS011;18201;50.978;7.034;2023-01-09T01:00:57;14.95;;;6.88;;
31596;SDS011;18201;50.978;7.034;2023-01-09T01:01:29;15.15;;;6.00;;
31596;SDS011;18201;50.978;7.034;2023-01-09T01:02:00;13.25;;;5.15;;
31596;SDS011;18201;50.978;7.034;2023-01-09T01:02:31;30.50;;;12.07;;
31596;SDS011;18201;50.978;7.034;2023-01-09T01:03:03;20.52;;;9.32;;
31596;SDS011;18201;50.978;7.034;2023-01-09T01:03:34;18.77;;;8.88;;
31596;SDS011;18201;50.978;7.034;2023-01-09T01:04:04;24.00;;;9.93;;
31596;SDS011;18201;50.978;7.034;2023-01-09T01:04:50;26.60;;;12.40;;
31596;SDS011;18201;50.978;7.034;2023-01-09T01:05:40;27.13;;;12.27;;
31596;SDS011;18201;50.978;7.034;2023-01-09T01:06:29;16.90;;;9.05;;
31596;SDS011;18201;50.978;7.034;2023-01-09T01:07:20;10.40;;;6.55;;
31596;SDS011;18201;50.978;7.034;2023-01-09T01:08:10;12.20;;;9.35;;
31596;SDS011;18201;50.978;7.034;2023-01-09T01:08:43;16.23;;;11.93;;
31596;SDS011;18201;50.978;7.034;2023-01-09T01:09:14;14.15;;;11.13;;
31596;SDS011;18201;50.978;7.034;2023-01-09T01:09:47;10.27;;;9.32;;
31596;SDS011;18201;50.978;7.034;2023-01-09T01:10:18;7.93;;;7.13;;
31596;SDS011;18201;50.978;7.034;2023-01-09T01:10:51;7.72;;;7.03;;
31596;SDS011;18201;50.978;7.034;2023-01-09T01:11:23;3.85;;;3.55;;
31596;SDS011;18201;50.978;7.034;2023-01-09T01:11:54;3.17;;;2.97;;
31596;SDS011;18201;50.978;7.034;2023-01-09T01:12:25;3.17;;;2.97;;
31596;SDS011;18201;50.978;7.034;2023-01-09T01:12:55;1.95;;;1.85;;
31596;SDS011;18201;50.978;7.034;2023-01-09T01:13:27;1.88;;;1.30;;
31596;SDS011;18201;50.978;7.034;2023-01-09T01:13:58;2.70;;;1.83;;
31596;SDS011;18201;50.978;7.034;2023-01-09T01:14:29;1.40;;;1.30;;
31596;SDS011;18201;50.978;7.034;2023-01-09T01:15:02;3.03;;;2.45;;
31596;SDS011;18201;50.978;7.034;2023-01-09T01:15:33;3.03;;;2.22;;
31596;SDS011;18201;50.978;7.034;2023-01-09T01:16:04;2.65;;;2.42;;
31596;SDS011;18201;50.978;7.034;2023-01-09T01:16:38;4.30;;;3.35;;
31596;SDS011;18201;50.978;7.034;2023-01-09T01:17:10;2.75;;;2.50;;
31596;SDS011;18201;50.978;7.034;2023-01-09T01:17:41;2.75;;;2.58;;
31596;SDS011;18201;50.978;7.034;2023-01-09T01:18:13;3.25;;;3.05;;
31596;SDS011;18201;50.978;7.034;2023-01-09T01:18:44;3.05;;;2.58;;
31596;SDS011;18201;50.978;7.034;2023-01-09T01:19:15;2.10;;;2.00;;
31596;SDS011;18201;50.978;7.034;2023-01-09T01:19:46;3.58;;;1.95;;
31596;SDS011;18201;50.978;7.034;2023-01-09T01:20:18;1.90;;;1.70;;
31596;SDS011;18201;50.978;7.034;2023-01-09T01:20:49;3.20;;;1.60;;
31596;SDS011;18201;50.978;7.034;2023-01-09T01:21:20;3.08;;;1.60;;
31596;SDS011;18201;50.978;7.034;2023-01-09T01:21:51;0.80;;;0.80;;
31596;SDS011;18201;50.978;7.034;2023-01-09T01:22:23;6.43;;;1.35;;
31596;SDS011;18201;50.978;7.034;2023-01-09T01:22:55;1.38;;;0.88;;
31596;SDS011;18201;50.978;7.034;2023-01-09T01:23:26;1.20;;;1.10;;
31596;SDS011;18201;50.978;7.034;2023-01-09T01:23:57;2.17;;;1.00;;
31596;SDS011;18201;50.978;7.034;2023-01-09T01:24:29;1.55;;;1.05;;
31596;SDS011;18201;50.978;7.034;2023-01-09T01:25:00;1.23;;;0.90;;
31596;SDS011;18201;50.978;7.034;2023-01-09T01:25:31;1.25;;;1.15;;
31596;SDS011;18201;50.978;7.034;2023-01-09T01:26:05;1.83;;;1.30;;
31596;SDS011;18201;50.978;7.034;2023-01-09T01:26:38;1.27;;;1.10;;
31596;SDS011;18201;50.978;7.034;2023-01-09T01:27:09;1.23;;;1.13;;
31596;SDS011;18201;50.978;7.034;2023-01-09T01:27:40;2.38;;;0.90;;
31596;SDS011;18201;50.978;7.034;2023-01-09T01:28:10;0.73;;;0.70;;
31596;SDS011;18201;50.978;7.034;2023-01-09T01:28:43;0.82;;;0.82;;
31596;SDS011;18201;50.978;7.034;2023-01-09T01:29:13;0.60;;;0.60;;
31596;SDS011;18201;50.978;7.034;2023-01-09T01:29:44;0.65;;;0.65;;
31596;SDS011;18201;50.978;7.034;2023-01-09T01:30:17;1.25;;;1.15;;
31596;SDS011;18201;50.978;7.034;2023-01-09T01:30:48;0.80;;;0.80;;
31596;SDS011;18201;50.978;7.034;2023-01-09T01:31:20;0.85;;;0.73;;
31596;SDS011;18201;50.978;7.034;2023-01-09T01:31:51;0.50;;;0.50;;
31596;SDS011;18201;50.978;7.034;2023-01-09T01:32:22;0.85;;;0.60;;
31596;SDS011;18201;50.978;7.034;2023-01-09T01:32:54;1.48;;;0.88;;
31596;SDS011;18201;50.978;7.034;2023-01-09T01:33:25;0.60;;;0.60;;
31596;SDS011;18201;50.978;7.034;2023-01-09T01:33:56;0.90;;;0.80;;
31596;SDS011;18201;50.978;7.034;2023-01-09T01:34:28;0.70;;;0.70;;
31596;SDS011;18201;50.978;7.034;2023-01-09T01:34:59;0.88;;;0.82;;
31596;SDS011;18201;50.978;7.034;2023-01-09T01:35:30;0.90;;;0.65;;
31596;SDS011;18201;50.978;7.034;2023-01-09T01:36:01;1.55;;;0.80;;
31596;SDS011;18201;50.978;7.034;2023-01-09T01:36:34;1.85;;;0.50;;
31596;SDS011;18201;50.978;7.034;2023-01-09T01:37:05;0.95;;;0.70;;
31596;SDS011;18201;50.978;7.034;2023-01-09T01:37:38;1.27;;;1.05;;
31596;SDS011;18201;50.978;7.034;2023-01-09T01:38:10;0.70;;;0.70;;
31596;SDS011;18201;50.978;7.034;2023-01-09T01:38:41;1.38;;;1.17;;
31596;SDS011;18201;50.978;7.034;2023-01-09T01:39:12;0.70;;;0.70;;
31596;SDS011;18201;50.978;7.034;2023-01-09T01:39:44;0.88;;;0.80;;
31596;SDS011;18201;50.978;7.034;2023-01-09T01:40:15;1.25;;;0.63;;
31596;SDS011;18201;50.978;7.034;2023-01-09T01:40:51;1.05;;;0.80;;
31596;SDS011;18201;50.978;7.034;2023-01-09T01:41:23;1.05;;;0.77;;
31596;SDS011;18201;50.978;7.034;2023-01-09T01:41:58;1.05;;;0.65;;
31596;SDS011;18201;50.978;7.034;2023-01-09T01:42:29;0.50;;;0.50;;
31596;SDS011;18201;50.978;7.034;2023-01-09T01:43:01;0.43;;;0.40;;
31596;SDS011;18201;50.978;7.034;2023-01-09T01:43:48;0.45;;;0.35;;
31596;SDS011;18201;50.978;7.034;2023-01-09T01:46:02;1.55;;;0.50;;
31596;SDS011;18201;50.978;7.034;2023-01-09T01:46:34;1.30;;;0.50;;
31596;SDS011;18201;50.978;7.034;2023-01-09T01:47:04;0.55;;;0.40;;
31596;SDS011;18201;50.978;7.034;2023-01-09T01:47:44;0.77;;;0.60;;
31596;SDS011;18201;50.978;7.034;2023-01-09T01:48:22;1.38;;;0.43;;
31596;SDS011;18201;50.978;7.034;2023-01-09T01:48:56;0.95;;;0.63;;
31596;SDS011;18201;50.978;7.034;2023-01-09T01:49:31;0.60;;;0.50;;
31596;SDS011;18201;50.978;7.034;2023-01-09T01:50:05;0.50;;;0.50;;
31596;SDS011;18201;50.978;7.034;2023-01-09T01:50:42;0.40;;;0.40;;
31596;SDS011;18201;50.978;7.034;2023-01-09T01:51:16;1.42;;;0.63;;
31596;SDS011;18201;50.978;7.034;2023-01-09T01:51:51;0.40;;;0.40;;
31596;SDS011;18201;50.978;7.034;2023-01-09T01:52:23;0.85;;;0.60;;
31596;SDS011;18201;50.978;7.034;2023-01-09T01:52:58;0.40;;;0.40;;
31596;SDS011;18201;50.978;7.034;2023-01-09T01:53:37;0.55;;;0.40;;
31596;SDS011;18201;50.978;7.034;2023-01-09T01:54:12;0.45;;;0.45;;
31596;SDS011;18201;50.978;7.034;2023-01-09T01:54:50;0.47;;;0.40;;
31596;SDS011;18201;50.978;7.034;2023-01-09T01:55:22;1.00;;;0.50;;
31596;SDS011;18201;50.978;7.034;2023-01-09T01:55:57;1.52;;;0.60;;
31596;SDS011;18201;50.978;7.034;2023-01-09T01:56:36;0.30;;;0.30;;
31596;SDS011;18201;50.978;7.034;2023-01-09T01:57:10;1.48;;;0.57;;
31596;SDS011;18201;50.978;7.034;2023-01-09T01:57:41;0.40;;;0.40;;
31596;SDS011;18201;50.978;7.034;2023-01-09T01:58:17;1.08;;;0.40;;
31596;SDS011;18201;50.978;7.034;2023-01-09T01:58:51;0.50;;;0.50;;
31596;SDS011;18201;50.978;7.034;2023-01-09T01:59:25;0.55;;;0.50;;
31596;SDS011;18201;50.978;7.034;2023-01-09T01:59:57;0.50;;;0.50;;
31596;SDS011;18201;50.978;7.034;2023-01-09T02:00:33;1.95;;;0.60;;
31596;SDS011;18201;50.978;7.034;2023-01-09T02:01:07;0.75;;;0.50;;
31596;SDS011;18201;50.978;7.034;2023-01-09T02:01:39;2.20;;;0.57;;
31596;SDS011;18201;50.978;7.034;2023-01-09T02:02:15;1.20;;;0.50;;
31596;SDS011;18201;50.978;7.034;2023-01-09T02:02:46;2.25;;;0.60;;
31596;SDS011;18201;50.978;7.034;2023-01-09T02:03:19;0.95;;;0.68;;
31596;SDS011;18201;50.978;7.034;2023-01-09T02:03:56;0.68;;;0.50;;
31596;SDS011;18201;50.978;7.034;2023-01-09T02:04:28;0.77;;;0.55;;
31596;SDS011;18201;50.978;7.034;2023-01-09T02:05:02;2.10;;;0.60;;
31596;SDS011;18201;50.978;7.034;2023-01-09T02:05:35;0.30;;;0.30;;
31596;SDS011;18201;50.978;7.034;2023-01-09T02:06:08;0.55;;;0.40;;
31596;SDS011;18201;50.978;7.034;2023-01-09T02:06:42;0.73;;;0.55;;
31596;SDS011;18201;50.978;7.034;2023-01-09T02:07:14;2.63;;;0.85;;
31596;SDS011;18201;50.978;7.034;2023-01-09T02:07:45;3.83;;;2.85;;
31596;SDS011;18201;50.978;7.034;2023-01-09T02:08:18;1.52;;;1.42;;
31596;SDS011;18201;50.978;7.034;2023-01-09T02:08:50;5.40;;;3.55;;
31596;SDS011;18201;50.978;7.034;2023-01-09T02:09:21;4.03;;;3.08;;
31596;SDS011;18201;50.978;7.034;2023-01-09T02:09:56;5.82;;;3.97;;
31596;SDS011;18201;50.978;7.034;2023-01-09T02:10:27;7.85;;;4.82;;
31596;SDS011;18201;50.978;7.034;2023-01-09T02:10:59;10.80;;;6.63;;
31596;SDS011;18201;50.978;7.034;2023-01-09T02:11:32;8.13;;;4.95;;
31596;SDS011;18201;50.978;7.034;2023-01-09T02:12:12;11.75;;;5.00;;
31596;SDS011;18201;50.978;7.034;2023-01-09T02:12:45;7.32;;;4.50;;
31596;SDS011;18201;50.978;7.034;2023-01-09T02:13:17;3.78;;;3.40;;
31596;SDS011;18201;50.978;7.034;2023-01-09T02:13:48;3.28;;;2.30;;
31596;SDS011;18201;50.978;7.034;2023-01-09T02:14:20;3.80;;;3.40;;
31596;SDS011;18201;50.978;7.034;2023-01-09T02:14:57;3.33;;;2.17;;
31596;SDS011;18201;50.978;7.034;2023-01-09T02:15:47;2.25;;;1.55;;
31596;SDS011;18201;50.978;7.034;2023-01-09T02:16:32;1.48;;;1.20;;
31596;SDS011;18201;50.978;7.034;2023-01-09T02:17:12;3.47;;;1.65;;
31596;SDS011;18201;50.978;7.034;2023-01-09T02:17:54;1.50;;;1.17;;
31596;SDS011;18201;50.978;7.034;2023-01-09T02:18:47;0.70;;;0.63;;
31596;SDS011;18201;50.978;7.034;2023-01-09T02:19:28;2.72;;;0.73;;
31596;SDS011;18201;50.978;7.034;2023-01-09T02:20:31;1.90;;;1.13;;
31596;SDS011;18201;50.978;7.034;2023-01-09T02:21:12;1.70;;;1.17;;
31596;SDS011;18201;50.978;7.034;2023-01-09T02:21:57;5.45;;;3.67;;
31596;SDS011;18201;50.978;7.034;2023-01-09T02:22:39;1.10;;;1.00;;
31596;SDS011;18201;50.978;7.034;2023-01-09T02:24:35;1.70;;;1.50;;
31596;SDS011;18201;50.978;7.034;2023-01-09T02:26:42;2.17;;;1.35;;
31596;SDS011;18201;50.978;7.034;2023-01-09T02:27:51;2.60;;;1.15;;
31596;SDS011;18201;50.978;7.034;2023-01-09T02:28:56;3.45;;;2.08;;
31596;SDS011;18201;50.978;7.034;2023-01-09T02:31:09;6.75;;;3.40;;
31596;SDS011;18201;50.978;7.034;2023-01-09T02:31:45;9.15;;;4.93;;
31596;SDS011;18201;50.978;7.034;2023-01-09T02:32:24;20.40;;;9.00;;
31596;SDS011;18201;50.978;7.034;2023-01-09T02:33:08;19.73;;;10.63;;
31596;SDS011;18201;50.978;7.034;2023-01-09T02:33:52;34.65;;;19.27;;
31596;SDS011;18201;50.978;7.034;2023-01-09T02:34:31;45.67;;;24.80;;
31596;SDS011;18201;50.978;7.034;2023-01-09T02:35:11;48.83;;;26.13;;
31596;SDS011;18201;50.978;7.034;2023-01-09T02:35:55;31.00;;;17.77;;
31596;SDS011;18201;50.978;7.034;2023-01-09T02:36:36;41.63;;;22.45;;
31596;SDS011;18201;50.978;7.034;2023-01-09T02:37:16;31.13;;;19.35;;
31596;SDS011;18201;50.978;7.034;2023-01-09T02:37:55;23.48;;;12.50;;
31596;SDS011;18201;50.978;7.034;2023-01-09T02:38:34;19.13;;;11.40;;
31596;SDS011;18201;50.978;7.034;2023-01-09T02:39:17;19.17;;;11.43;;
31596;SDS011;18201;50.978;7.034;2023-01-09T02:39:58;10.43;;;8.00;;
31596;SDS011;18201;50.978;7.034;2023-01-09T02:40:37;10.13;;;6.97;;
31596;SDS011;18201;50.978;7.034;2023-01-09T02:41:13;10.10;;;6.50;;
31596;SDS011;18201;50.978;7.034;2023-01-09T02:41:52;5.78;;;5.07;;
31596;SDS011;18201;50.978;7.034;2023-01-09T02:42:29;9.32;;;5.78;;
31596;SDS011;18201;50.978;7.034;2023-01-09T02:43:02;6.60;;;5.25;;
31596;SDS011;18201;50.978;7.034;2023-01-09T02:43:37;7.32;;;4.80;;
31596;SDS011;18201;50.978;7.034;2023-01-09T02:44:22;3.85;;;2.72;;
31596;SDS011;18201;50.978;7.034;2023-01-09T02:44:54;4.55;;;3.15;;
31596;SDS011;18201;50.978;7.034;2023-01-09T02:45:26;3.40;;;2.13;;
31596;SDS011;18201;50.978;7.034;2023-01-09T02:45:57;5.82;;;2.53;;
31596;SDS011;18201;50.978;7.034;2023-01-09T02:46:29;3.55;;;2.50;;
31596;SDS011;18201;50.978;7.034;2023-01-09T02:47:02;2.25;;;1.63;;
31596;SDS011;18201;50.978;7.034;2023-01-09T02:47:39;4.47;;;2.88;;
31596;SDS011;18201;50.978;7.034;2023-01-09T02:48:12;3.00;;;1.92;;
31596;SDS011;18201;50.978;7.034;2023-01-09T02:48:44;2.38;;;2.00;;
31596;SDS011;18201;50.978;7.034;2023-01-09T02:49:15;2.80;;;2.53;;
31596;SDS011;18201;50.978;7.034;2023-01-09T02:49:47;1.80;;;1.70;;
31596;SDS011;18201;50.978;7.034;2023-01-09T02:50:23;1.77;;;1.15;;
31596;SDS011;18201;50.978;7.034;2023-01-09T02:51:03;2.00;;;1.10;;
31596;SDS011;18201;50.978;7.034;2023-01-09T02:51:44;3.10;;;1.38;;
31596;SDS011;18201;50.978;7.034;2023-01-09T02:52:24;2.10;;;1.15;;
31596;SDS011;18201;50.978;7.034;2023-01-09T02:53:19;1.23;;;1.02;;
31596;SDS011;18201;50.978;7.034;2023-01-09T02:54:07;1.13;;;1.02;;
31596;SDS011;18201;50.978;7.034;2023-01-09T02:54:50;1.80;;;0.80;;
31596;SDS011;18201;50.978;7.034;2023-01-09T02:55:33;0.93;;;0.73;;
31596;SDS011;18201;50.978;7.034;2023-01-09T02:56:22;0.73;;;0.65;;
31596;SDS011;18201;50.978;7.034;2023-01-09T02:57:10;1.90;;;0.70;;
31596;SDS011;18201;50.978;7.034;2023-01-09T02:57:50;7.40;;;0.90;;
31596;SDS011;18201;50.978;7.034;2023-01-09T02:58:38;3.00;;;0.80;;
31596;SDS011;18201;50.978;7.034;2023-01-09T02:59:26;0.55;;;0.52;;
31596;SDS011;18201;50.978;7.034;2023-01-09T03:00:04;2.13;;;1.00;;
31596;SDS011;18201;50.978;7.034;2023-01-09T03:00:43;1.15;;;0.70;;
31596;SDS011;18201;50.978;7.034;2023-01-09T03:01:28;1.15;;;0.80;;
31596;SDS011;18201;50.978;7.034;2023-01-09T03:02:21;1.63;;;1.00;;
31596;SDS011;18201;50.978;7.034;2023-01-09T03:03:10;1.63;;;0.90;;
31596;SDS011;18201;50.978;7.034;2023-01-09T03:03:47;1.30;;;1.17;;
31596;SDS011;18201;50.978;7.034;2023-01-09T03:04:26;1.33;;;0.75;;
31596;SDS011;18201;50.978;7.034;2023-01-09T03:05:04;4.05;;;0.98;;
31596;SDS011;18201;50.978;7.034;2023-01-09T03:05:39;2.08;;;0.68;;
31596;SDS011;18201;50.978;7.034;2023-01-09T03:06:14;3.92;;;0.75;;
31596;SDS011;18201;50.978;7.034;2023-01-09T03:06:51;2.58;;;1.40;;
31596;SDS011;18201;50.978;7.034;2023-01-09T03:07:26;1.23;;;0.75;;
31596;SDS011;18201;50.978;7.034;2023-01-09T03:08:05;1.63;;;0.57;;
31596;SDS011;18201;50.978;7.034;2023-01-09T03:08:39;1.30;;;0.85;;
31596;SDS011;18201;50.978;7.034;2023-01-09T03:09:12;2.90;;;0.70;;
31596;SDS011;18201;50.978;7.034;2023-01-09T03:09:49;1.73;;;1.00;;
31596;SDS011;18201;50.978;7.034;2023-01-09T03:10:24;1.88;;;0.82;;
31596;SDS011;18201;50.978;7.034;2023-01-09T03:11:02;2.38;;;0.90;;
31596;SDS011;18201;50.978;7.034;2023-01-09T03:11:37;2.33;;;1.10;;
31596;SDS011;18201;50.978;7.034;2023-01-09T03:12:14;4.00;;;0.70;;
31596;SDS011;18201;50.978;7.034;2023-01-09T03:12:50;2.60;;;1.00;;
31596;SDS011;18201;50.978;7.034;2023-01-09T03:13:23;6.90;;;1.55;;
31596;SDS011;18201;50.978;7.034;2023-01-09T03:13:58;1.30;;;0.70;;
31596;SDS011;18201;50.978;7.034;2023-01-09T03:14:34;1.48;;;1.02;;
31596;SDS011;18201;50.978;7.034;2023-01-09T03:15:10;2.13;;;0.90;;
31596;SDS011;18201;50.978;7.034;2023-01-09T03:15:45;2.55;;;1.08;;
31596;SDS011;18201;50.978;7.034;2023-01-09T03:16:20;1.55;;;1.13;;
31596;SDS011;18201;50.978;7.034;2023-01-09T03:16:55;4.43;;;1.25;;
31596;SDS011;18201;50.978;7.034;2023-01-09T03:17:33;2.42;;;1.45;;
31596;SDS011;18201;50.978;7.034;2023-01-09T03:18:07;6.85;;;1.83;;
31596;SDS011;18201;50.978;7.034;2023-01-09T03:18:40;1.15;;;0.80;;
31596;SDS011;18201;50.978;7.034;2023-01-09T03:19:15;2.70;;;1.15;;
31596;SDS011;18201;50.978;7.034;2023-01-09T03:19:50;3.42;;;1.15;;
31596;SDS011;18201;50.978;7.034;2023-01-09T03:20:23;2.58;;;1.02;;
31596;SDS011;18201;50.978;7.034;2023-01-09T03:20:57;4.25;;;1.05;;
31596;SDS011;18201;50.978;7.034;2023-01-09T03:21:29;4.00;;;1.13;;
31596;SDS011;18201;50.978;7.034;2023-01-09T03:22:01;5.00;;;0.95;;
31596;SDS011;18201;50.978;7.034;2023-01-09T03:22:33;3.78;;;1.13;;
31596;SDS011;18201;50.978;7.034;2023-01-09T03:23:05;9.68;;;1.30;;
31596;SDS011;18201;50.978;7.034;2023-01-09T03:23:47;5.47;;;1.00;;
31596;SDS011;18201;50.978;7.034;2023-01-09T03:24:20;1.08;;;0.90;;
31596;SDS011;18201;50.978;7.034;2023-01-09T03:24:51;2.78;;;1.17;;
31596;SDS011;18201;50.978;7.034;2023-01-09T03:25:22;1.50;;;1.02;;
31596;SDS011;18201;50.978;7.034;2023-01-09T03:25:55;2.70;;;1.13;;
31596;SDS011;18201;50.978;7.034;2023-01-09T03:26:27;1.75;;;0.70;;
31596;SDS011;18201;50.978;7.034;2023-01-09T03:27:00;2.40;;;0.80;;
31596;SDS011;18201;50.978;7.034;2023-01-09T03:27:31;4.90;;;1.30;;
31596;SDS011;18201;50.978;7.034;2023-01-09T03:28:03;3.65;;;1.15;;
31596;SDS011;18201;50.978;7.034;2023-01-09T03:28:35;3.45;;;1.42;;
31596;SDS011;18201;50.978;7.034;2023-01-09T03:29:06;3.70;;;1.25;;
31596;SDS011;18201;50.978;7.034;2023-01-09T03:29:38;1.88;;;1.00;;
31596;SDS011;18201;50.978;7.034;2023-01-09T03:30:09;2.17;;;1.05;;
31596;SDS011;18201;50.978;7.034;2023-01-09T03:30:41;2.17;;;1.25;;
31596;SDS011;18201;50.978;7.034;2023-01-09T03:31:13;4.80;;;1.45;;
31596;SDS011;18201;50.978;7.034;2023-01-09T03:31:44;1.45;;;1.00;;
31596;SDS011;18201;50.978;7.034;2023-01-09T03:32:16;4.05;;;1.10;;
31596;SDS011;18201;50.978;7.034;2023-01-09T03:32:48;4.50;;;1.10;;
31596;SDS011;18201;50.978;7.034;2023-01-09T03:33:19;2.08;;;0.80;;
31596;SDS011;18201;50.978;7.034;2023-01-09T03:33:50;2.45;;;1.00;;
31596;SDS011;18201;50.978;7.034;2023-01-09T03:34:22;5.80;;;1.00;;